sensor_id;sensor_type;location;lat;lon;timestamp;P1;durP1;ratioP1;P2;durP2;ratioP2
68484;SDS011;55472;50.060;21.960;2024-03-25T00:01:23;16.55;;;6.40;;
68484;SDS011;55472;50.060;21.960;2024-03-25T00:03:50;16.00;;;5.75;;
68484;SDS011;55472;50.060;21.960;2024-03-25T00:06:16;15.82;;;6.07;;
68484;SDS011;55472;50.060;21.960;2024-03-25T00:08:42;17.90;;;6.07;;
68484;SDS011;55472;50.060;21.960;2024-03-25T00:11:08;15.48;;;6.20;;
68484;SDS011;55472;50.060;21.960;2024-03-25T00:13:34;16.33;;;5.78;;
68484;SDS011;55472;50.060;21.960;2024-03-25T00:16:00;15.75;;;6.13;;
68484;SDS011;55472;50.060;21.960;2024-03-25T00:18:26;15.23;;;5.97;;
68484;SDS011;55472;50.060;21.960;2024-03-25T00:20:53;13.57;;;5.70;;
68484;SDS011;55472;50.060;21.960;2024-03-25T00:23:19;16.40;;;6.65;;
68484;SDS011;55472;50.060;21.960;2024-03-25T00:25:46;19.92;;;7.40;;
68484;SDS011;55472;50.060;21.960;2024-03-25T00:28:12;18.55;;;6.90;;
68484;SDS011;55472;50.060;21.960;2024-03-25T00:30:38;16.58;;;6.40;;
68484;SDS011;55472;50.060;21.960;2024-03-25T00:33:04;17.30;;;5.95;;
68484;SDS011;55472;50.060;21.960;2024-03-25T00:35:32;15.53;;;6.83;;
68484;SDS011;55472;50.060;21.960;2024-03-25T00:37:59;17.75;;;7.07;;
68484;SDS011;55472;50.060;21.960;2024-03-25T00:40:26;18.02;;;6.80;;
68484;SDS011;55472;50.060;21.960;2024-03-25T00:42:52;13.10;;;5.47;;
68484;SDS011;55472;50.060;21.960;2024-03-25T00:45:18;12.93;;;5.25;;
68484;SDS011;55472;50.060;21.960;2024-03-25T00:47:44;13.20;;;4.93;;
68484;SDS011;55472;50.060;21.960;2024-03-25T00:50:10;15.10;;;5.15;;
68484;SDS011;55472;50.060;21.960;2024-03-25T00:52:36;12.85;;;5.10;;
68484;SDS011;55472;50.060;21.960;2024-03-25T00:55:02;12.73;;;5.05;;
68484;SDS011;55472;50.060;21.960;2024-03-25T00:57:29;15.27;;;5.83;;
68484;SDS011;55472;50.060;21.960;2024-03-25T00:59:55;14.38;;;6.80;;
68484;SDS011;55472;50.060;21.960;2024-03-25T01:02:21;17.58;;;8.40;;
68484;SDS011;55472;50.060;21.960;2024-03-25T01:04:48;16.40;;;6.55;;
68484;SDS011;55472;50.060;21.960;2024-03-25T01:07:14;15.63;;;6.30;;
68484;SDS011;55472;50.060;21.960;2024-03-25T01:09:40;19.63;;;6.77;;
68484;SDS011;55472;50.060;21.960;2024-03-25T01:12:06;17.38;;;7.30;;
68484;SDS011;55472;50.060;21.960;2024-03-25T01:14:32;16.60;;;7.10;;
68484;SDS011;55472;50.060;21.960;2024-03-25T01:16:58;13.80;;;5.63;;
68484;SDS011;55472;50.060;21.960;2024-03-25T01:19:24;14.15;;;5.63;;
68484;SDS011;55472;50.060;21.960;2024-03-25T01:21:51;15.70;;;6.17;;
68484;SDS011;55472;50.060;21.960;2024-03-25T01:24:17;15.07;;;5.72;;
68484;SDS011;55472;50.060;21.960;2024-03-25T01:26:43;15.30;;;5.53;;
68484;SDS011;55472;50.060;21.960;2024-03-25T01:29:09;15.02;;;6.22;;
68484;SDS011;55472;50.060;21.960;2024-03-25T01:31:35;17.95;;;7.18;;
68484;SDS011;55472;50.060;21.960;2024-03-25T01:34:02;14.43;;;6.00;;
68484;SDS011;55472;50.060;21.960;2024-03-25T01:36:28;13.07;;;5.22;;
68484;SDS011;55472;50.060;21.960;2024-03-25T01:38:54;11.88;;;5.25;;
68484;SDS011;55472;50.060;21.960;2024-03-25T01:41:21;11.95;;;4.78;;
68484;SDS011;55472;50.060;21.960;2024-03-25T01:43:50;11.80;;;4.45;;
68484;SDS011;55472;50.060;21.960;2024-03-25T01:46:16;13.47;;;5.93;;
68484;SDS011;55472;50.060;21.960;2024-03-25T01:48:44;12.25;;;4.88;;
68484;SDS011;55472;50.060;21.960;2024-03-25T01:51:11;10.27;;;3.97;;
68484;SDS011;55472;50.060;21.960;2024-03-25T01:53:40;8.60;;;3.65;;
68484;SDS011;55472;50.060;21.960;2024-03-25T01:56:07;8.13;;;3.50;;
68484;SDS011;55472;50.060;21.960;2024-03-25T01:58:35;10.25;;;3.90;;
68484;SDS011;55472;50.060;21.960;2024-03-25T02:01:03;10.27;;;4.07;;
68484;SDS011;55472;50.060;21.960;2024-03-25T02:03:30;11.95;;;4.53;;
68484;SDS011;55472;50.060;21.960;2024-03-25T02:05:57;9.05;;;3.95;;
68484;SDS011;55472;50.060;21.960;2024-03-25T02:08:27;10.90;;;3.67;;
68484;SDS011;55472;50.060;21.960;2024-03-25T02:10:57;10.75;;;3.78;;
68484;SDS011;55472;50.060;21.960;2024-03-25T02:13:24;10.10;;;3.70;;
68484;SDS011;55472;50.060;21.960;2024-03-25T02:15:50;9.48;;;3.88;;
68484;SDS011;55472;50.060;21.960;2024-03-25T02:18:18;9.85;;;3.60;;
68484;SDS011;55472;50.060;21.960;2024-03-25T02:20:44;8.23;;;3.30;;
68484;SDS011;55472;50.060;21.960;2024-03-25T02:23:14;9.27;;;3.65;;
68484;SDS011;55472;50.060;21.960;2024-03-25T02:25:40;8.88;;;3.47;;
68484;SDS011;55472;50.060;21.960;2024-03-25T02:28:09;10.18;;;3.40;;
68484;SDS011;55472;50.060;21.960;2024-03-25T02:30:35;10.77;;;3.65;;
68484;SDS011;55472;50.060;21.960;2024-03-25T02:33:02;8.00;;;3.10;;
68484;SDS011;55472;50.060;21.960;2024-03-25T02:35:28;9.40;;;3.13;;
68484;SDS011;55472;50.060;21.960;2024-03-25T02:37:55;7.32;;;2.90;;
68484;SDS011;55472;50.060;21.960;2024-03-25T02:40:21;9.13;;;3.08;;
68484;SDS011;55472;50.060;21.960;2024-03-25T02:42:48;7.25;;;2.70;;
68484;SDS011;55472;50.060;21.960;2024-03-25T02:45:14;7.10;;;2.77;;
68484;SDS011;55472;50.060;21.960;2024-03-25T02:47:41;6.80;;;2.70;;
68484;SDS011;55472;50.060;21.960;2024-03-25T02:50:09;6.80;;;2.65;;
68484;SDS011;55472;50.060;21.960;2024-03-25T02:52:35;7.20;;;3.30;;
68484;SDS011;55472;50.060;21.960;2024-03-25T02:55:01;7.07;;;2.78;;
68484;SDS011;55472;50.060;21.960;2024-03-25T02:57:28;7.60;;;3.03;;
68484;SDS011;55472;50.060;21.960;2024-03-25T02:59:54;8.43;;;3.28;;
68484;SDS011;55472;50.060;21.960;2024-03-25T03:02:20;6.20;;;2.60;;
68484;SDS011;55472;50.060;21.960;2024-03-25T03:04:46;8.73;;;3.08;;
68484;SDS011;55472;50.060;21.960;2024-03-25T03:07:12;7.97;;;3.17;;
68484;SDS011;55472;50.060;21.960;2024-03-25T03:09:38;7.13;;;2.57;;
68484;SDS011;55472;50.060;21.960;2024-03-25T03:12:06;7.72;;;3.00;;
68484;SDS011;55472;50.060;21.960;2024-03-25T03:14:32;6.68;;;2.40;;
68484;SDS011;55472;50.060;21.960;2024-03-25T03:16:59;8.00;;;2.97;;
68484;SDS011;55472;50.060;21.960;2024-03-25T03:19:30;6.68;;;2.75;;
68484;SDS011;55472;50.060;21.960;2024-03-25T03:21:57;7.43;;;2.73;;
68484;SDS011;55472;50.060;21.960;2024-03-25T03:24:23;7.80;;;2.35;;
68484;SDS011;55472;50.060;21.960;2024-03-25T03:26:49;6.13;;;2.30;;
68484;SDS011;55472;50.060;21.960;2024-03-25T03:29:15;7.45;;;2.40;;
68484;SDS011;55472;50.060;21.960;2024-03-25T03:31:42;5.97;;;2.25;;
68484;SDS011;55472;50.060;21.960;2024-03-25T03:34:09;8.37;;;2.40;;
68484;SDS011;55472;50.060;21.960;2024-03-25T03:36:36;8.25;;;2.58;;
68484;SDS011;55472;50.060;21.960;2024-03-25T03:39:02;7.97;;;2.83;;
68484;SDS011;55472;50.060;21.960;2024-03-25T03:41:29;6.28;;;2.20;;
68484;SDS011;55472;50.060;21.960;2024-03-25T03:43:55;9.95;;;2.78;;
68484;SDS011;55472;50.060;21.960;2024-03-25T03:46:21;6.07;;;2.40;;
68484;SDS011;55472;50.060;21.960;2024-03-25T03:48:47;5.95;;;2.45;;
68484;SDS011;55472;50.060;21.960;2024-03-25T03:51:13;5.85;;;2.53;;
68484;SDS011;55472;50.060;21.960;2024-03-25T03:53:39;5.38;;;2.28;;
68484;SDS011;55472;50.060;21.960;2024-03-25T03:56:06;6.43;;;2.67;;
68484;SDS011;55472;50.060;21.960;2024-03-25T03:58:32;7.10;;;2.80;;
68484;SDS011;55472;50.060;21.960;2024-03-25T04:00:59;7.18;;;2.58;;
68484;SDS011;55472;50.060;21.960;2024-03-25T04:03:26;6.07;;;2.40;;
68484;SDS011;55472;50.060;21.960;2024-03-25T04:05:52;6.43;;;2.63;;
68484;SDS011;55472;50.060;21.960;2024-03-25T04:08:18;7.63;;;2.70;;
68484;SDS011;55472;50.060;21.960;2024-03-25T04:10:45;7.60;;;2.90;;
68484;SDS011;55472;50.060;21.960;2024-03-25T04:13:11;8.10;;;2.65;;
68484;SDS011;55472;50.060;21.960;2024-03-25T04:15:39;7.00;;;2.65;;
68484;SDS011;55472;50.060;21.960;2024-03-25T04:18:07;5.80;;;2.42;;
68484;SDS011;55472;50.060;21.960;2024-03-25T04:20:38;6.97;;;2.77;;
68484;SDS011;55472;50.060;21.960;2024-03-25T04:23:05;8.05;;;3.33;;
68484;SDS011;55472;50.060;21.960;2024-03-25T04:25:33;8.32;;;2.47;;
68484;SDS011;55472;50.060;21.960;2024-03-25T04:28:00;8.43;;;2.63;;
68484;SDS011;55472;50.060;21.960;2024-03-25T04:30:26;7.75;;;3.08;;
68484;SDS011;55472;50.060;21.960;2024-03-25T04:32:53;8.57;;;2.77;;
68484;SDS011;55472;50.060;21.960;2024-03-25T04:35:19;10.45;;;3.60;;
68484;SDS011;55472;50.060;21.960;2024-03-25T04:37:45;10.65;;;3.70;;
68484;SDS011;55472;50.060;21.960;2024-03-25T04:40:12;10.93;;;3.65;;
68484;SDS011;55472;50.060;21.960;2024-03-25T04:42:40;9.88;;;3.35;;
68484;SDS011;55472;50.060;21.960;2024-03-25T04:45:07;13.67;;;4.90;;
68484;SDS011;55472;50.060;21.960;2024-03-25T04:47:33;15.02;;;5.07;;
68484;SDS011;55472;50.060;21.960;2024-03-25T04:50:00;14.75;;;5.20;;
68484;SDS011;55472;50.060;21.960;2024-03-25T04:52:28;11.50;;;3.83;;
68484;SDS011;55472;50.060;21.960;2024-03-25T04:54:54;14.63;;;4.32;;
68484;SDS011;55472;50.060;21.960;2024-03-25T04:57:20;9.43;;;3.33;;
68484;SDS011;55472;50.060;21.960;2024-03-25T04:59:46;9.68;;;3.22;;
68484;SDS011;55472;50.060;21.960;2024-03-25T05:02:12;10.43;;;3.83;;
68484;SDS011;55472;50.060;21.960;2024-03-25T05:04:39;9.93;;;3.40;;
68484;SDS011;55472;50.060;21.960;2024-03-25T05:07:05;10.70;;;3.47;;
68484;SDS011;55472;50.060;21.960;2024-03-25T05:09:32;12.83;;;3.93;;
68484;SDS011;55472;50.060;21.960;2024-03-25T05:11:58;13.52;;;5.20;;
68484;SDS011;55472;50.060;21.960;2024-03-25T05:14:24;11.57;;;4.78;;
68484;SDS011;55472;50.060;21.960;2024-03-25T05:16:50;10.75;;;4.15;;
68484;SDS011;55472;50.060;21.960;2024-03-25T05:19:18;10.98;;;3.88;;
68484;SDS011;55472;50.060;21.960;2024-03-25T05:21:44;11.80;;;3.73;;
68484;SDS011;55472;50.060;21.960;2024-03-25T05:24:11;10.30;;;3.72;;
68484;SDS011;55472;50.060;21.960;2024-03-25T05:26:37;12.20;;;3.60;;
68484;SDS011;55472;50.060;21.960;2024-03-25T05:29:03;9.10;;;3.55;;
68484;SDS011;55472;50.060;21.960;2024-03-25T05:31:29;10.60;;;3.47;;
68484;SDS011;55472;50.060;21.960;2024-03-25T05:33:56;7.43;;;2.37;;
68484;SDS011;55472;50.060;21.960;2024-03-25T05:36:22;10.77;;;3.33;;
68484;SDS011;55472;50.060;21.960;2024-03-25T05:38:48;9.10;;;3.53;;
68484;SDS011;55472;50.060;21.960;2024-03-25T05:41:14;8.68;;;3.45;;
68484;SDS011;55472;50.060;21.960;2024-03-25T05:43:41;8.23;;;2.97;;
68484;SDS011;55472;50.060;21.960;2024-03-25T05:46:07;6.87;;;3.07;;
68484;SDS011;55472;50.060;21.960;2024-03-25T05:48:33;10.00;;;3.40;;
68484;SDS011;55472;50.060;21.960;2024-03-25T05:51:05;10.10;;;3.17;;
68484;SDS011;55472;50.060;21.960;2024-03-25T05:53:35;8.50;;;3.35;;
68484;SDS011;55472;50.060;21.960;2024-03-25T05:56:01;9.80;;;3.90;;
68484;SDS011;55472;50.060;21.960;2024-03-25T05:58:28;8.07;;;3.30;;
68484;SDS011;55472;50.060;21.960;2024-03-25T06:00:54;9.13;;;3.25;;
68484;SDS011;55472;50.060;21.960;2024-03-25T06:03:20;7.88;;;3.17;;
68484;SDS011;55472;50.060;21.960;2024-03-25T06:05:47;8.35;;;3.30;;
68484;SDS011;55472;50.060;21.960;2024-03-25T06:08:14;12.23;;;4.07;;
68484;SDS011;55472;50.060;21.960;2024-03-25T06:10:55;10.23;;;3.85;;
68484;SDS011;55472;50.060;21.960;2024-03-25T06:13:27;8.02;;;3.45;;
68484;SDS011;55472;50.060;21.960;2024-03-25T06:15:53;8.82;;;3.15;;
68484;SDS011;55472;50.060;21.960;2024-03-25T06:18:19;8.43;;;3.17;;
68484;SDS011;55472;50.060;21.960;2024-03-25T06:20:45;10.60;;;3.70;;
68484;SDS011;55472;50.060;21.960;2024-03-25T06:23:21;8.20;;;3.70;;
68484;SDS011;55472;50.060;21.960;2024-03-25T06:25:52;13.45;;;4.28;;
68484;SDS011;55472;50.060;21.960;2024-03-25T06:28:20;8.27;;;3.47;;
68484;SDS011;55472;50.060;21.960;2024-03-25T06:30:47;8.10;;;3.37;;
68484;SDS011;55472;50.060;21.960;2024-03-25T06:33:32;7.70;;;3.10;;
68484;SDS011;55472;50.060;21.960;2024-03-25T06:36:17;8.77;;;3.53;;
68484;SDS011;55472;50.060;21.960;2024-03-25T06:38:44;10.43;;;3.35;;
68484;SDS011;55472;50.060;21.960;2024-03-25T06:41:10;8.15;;;3.38;;
68484;SDS011;55472;50.060;21.960;2024-03-25T06:43:37;8.63;;;3.07;;
68484;SDS011;55472;50.060;21.960;2024-03-25T06:46:04;6.80;;;2.65;;
68484;SDS011;55472;50.060;21.960;2024-03-25T06:48:34;6.93;;;2.70;;
68484;SDS011;55472;50.060;21.960;2024-03-25T06:51:00;6.60;;;2.33;;
68484;SDS011;55472;50.060;21.960;2024-03-25T06:53:29;9.07;;;2.90;;
68484;SDS011;55472;50.060;21.960;2024-03-25T06:55:56;9.93;;;2.40;;
68484;SDS011;55472;50.060;21.960;2024-03-25T06:58:29;7.60;;;3.00;;
68484;SDS011;55472;50.060;21.960;2024-03-25T07:00:56;7.63;;;2.90;;
68484;SDS011;55472;50.060;21.960;2024-03-25T07:03:28;7.28;;;2.65;;
68484;SDS011;55472;50.060;21.960;2024-03-25T07:05:55;7.10;;;2.30;;
68484;SDS011;55472;50.060;21.960;2024-03-25T07:08:22;8.67;;;2.40;;
68484;SDS011;55472;50.060;21.960;2024-03-25T07:10:48;8.30;;;2.88;;
68484;SDS011;55472;50.060;21.960;2024-03-25T07:13:14;7.15;;;2.78;;
68484;SDS011;55472;50.060;21.960;2024-03-25T07:15:42;7.28;;;2.53;;
68484;SDS011;55472;50.060;21.960;2024-03-25T07:18:09;7.00;;;2.95;;
68484;SDS011;55472;50.060;21.960;2024-03-25T07:20:39;8.60;;;2.70;;
68484;SDS011;55472;50.060;21.960;2024-03-25T07:23:05;5.93;;;2.40;;
68484;SDS011;55472;50.060;21.960;2024-03-25T07:25:32;8.43;;;2.70;;
68484;SDS011;55472;50.060;21.960;2024-03-25T07:27:58;7.78;;;2.63;;
68484;SDS011;55472;50.060;21.960;2024-03-25T07:30:25;9.95;;;2.67;;
68484;SDS011;55472;50.060;21.960;2024-03-25T07:32:55;6.77;;;2.77;;
68484;SDS011;55472;50.060;21.960;2024-03-25T07:35:22;8.90;;;2.60;;
68484;SDS011;55472;50.060;21.960;2024-03-25T07:37:48;8.35;;;2.38;;
68484;SDS011;55472;50.060;21.960;2024-03-25T07:40:17;6.55;;;2.67;;
68484;SDS011;55472;50.060;21.960;2024-03-25T07:42:47;6.35;;;2.67;;
68484;SDS011;55472;50.060;21.960;2024-03-25T07:45:17;5.87;;;2.60;;
68484;SDS011;55472;50.060;21.960;2024-03-25T07:47:43;7.25;;;2.80;;
68484;SDS011;55472;50.060;21.960;2024-03-25T07:50:10;18.00;;;5.18;;
68484;SDS011;55472;50.060;21.960;2024-03-25T07:52:36;8.30;;;3.40;;
68484;SDS011;55472;50.060;21.960;2024-03-25T07:55:06;6.20;;;2.38;;
68484;SDS011;55472;50.060;21.960;2024-03-25T07:57:33;5.90;;;2.40;;
68484;SDS011;55472;50.060;21.960;2024-03-25T07:59:59;5.60;;;2.00;;
68484;SDS011;55472;50.060;21.960;2024-03-25T08:02:25;6.10;;;1.90;;
68484;SDS011;55472;50.060;21.960;2024-03-25T08:04:51;4.45;;;1.50;;
68484;SDS011;55472;50.060;21.960;2024-03-25T08:07:17;4.32;;;1.55;;
68484;SDS011;55472;50.060;21.960;2024-03-25T08:09:44;5.03;;;1.67;;
68484;SDS011;55472;50.060;21.960;2024-03-25T08:12:10;3.73;;;1.50;;
68484;SDS011;55472;50.060;21.960;2024-03-25T08:14:36;5.13;;;1.70;;
68484;SDS011;55472;50.060;21.960;2024-03-25T08:17:02;4.30;;;1.50;;
68484;SDS011;55472;50.060;21.960;2024-03-25T08:19:29;6.68;;;2.03;;
68484;SDS011;55472;50.060;21.960;2024-03-25T08:21:57;5.85;;;1.60;;
68484;SDS011;55472;50.060;21.960;2024-03-25T08:24:23;4.72;;;1.73;;
68484;SDS011;55472;50.060;21.960;2024-03-25T08:26:49;3.57;;;1.37;;
68484;SDS011;55472;50.060;21.960;2024-03-25T08:29:15;6.15;;;1.95;;
68484;SDS011;55472;50.060;21.960;2024-03-25T08:31:41;5.57;;;2.22;;
68484;SDS011;55472;50.060;21.960;2024-03-25T08:34:07;4.35;;;1.38;;
68484;SDS011;55472;50.060;21.960;2024-03-25T08:36:33;4.77;;;1.60;;
68484;SDS011;55472;50.060;21.960;2024-03-25T08:39:00;3.00;;;1.17;;
68484;SDS011;55472;50.060;21.960;2024-03-25T08:41:26;3.97;;;1.38;;
68484;SDS011;55472;50.060;21.960;2024-03-25T08:43:52;4.43;;;1.58;;
68484;SDS011;55472;50.060;21.960;2024-03-25T08:46:18;3.53;;;1.10;;
68484;SDS011;55472;50.060;21.960;2024-03-25T08:48:44;3.92;;;1.23;;
68484;SDS011;55472;50.060;21.960;2024-03-25T08:51:10;3.10;;;1.17;;
68484;SDS011;55472;50.060;21.960;2024-03-25T08:53:36;4.35;;;1.13;;
68484;SDS011;55472;50.060;21.960;2024-03-25T08:56:02;3.73;;;1.40;;
68484;SDS011;55472;50.060;21.960;2024-03-25T08:58:30;5.33;;;1.87;;
68484;SDS011;55472;50.060;21.960;2024-03-25T09:00:56;3.53;;;1.17;;
68484;SDS011;55472;50.060;21.960;2024-03-25T09:03:22;3.70;;;1.40;;
68484;SDS011;55472;50.060;21.960;2024-03-25T09:05:49;3.80;;;1.60;;
68484;SDS011;55472;50.060;21.960;2024-03-25T09:08:15;4.57;;;1.60;;
68484;SDS011;55472;50.060;21.960;2024-03-25T09:10:43;4.70;;;1.80;;
68484;SDS011;55472;50.060;21.960;2024-03-25T09:13:28;3.40;;;1.15;;
68484;SDS011;55472;50.060;21.960;2024-03-25T09:15:56;7.28;;;2.35;;
68484;SDS011;55472;50.060;21.960;2024-03-25T09:18:22;4.40;;;1.77;;
68484;SDS011;55472;50.060;21.960;2024-03-25T09:20:48;3.50;;;1.20;;
68484;SDS011;55472;50.060;21.960;2024-03-25T09:23:15;6.32;;;2.60;;
68484;SDS011;55472;50.060;21.960;2024-03-25T09:25:50;3.90;;;1.10;;
68484;SDS011;55472;50.060;21.960;2024-03-25T09:28:17;2.90;;;1.10;;
68484;SDS011;55472;50.060;21.960;2024-03-25T09:30:44;4.33;;;1.90;;
68484;SDS011;55472;50.060;21.960;2024-03-25T09:33:10;3.15;;;0.98;;
68484;SDS011;55472;50.060;21.960;2024-03-25T09:35:36;4.90;;;2.30;;
68484;SDS011;55472;50.060;21.960;2024-03-25T09:38:03;4.90;;;1.95;;
68484;SDS011;55472;50.060;21.960;2024-03-25T09:40:29;3.17;;;0.80;;
68484;SDS011;55472;50.060;21.960;2024-03-25T09:42:56;3.60;;;1.03;;
68484;SDS011;55472;50.060;21.960;2024-03-25T09:45:25;3.42;;;1.50;;
68484;SDS011;55472;50.060;21.960;2024-03-25T09:47:55;3.83;;;1.40;;
68484;SDS011;55472;50.060;21.960;2024-03-25T09:50:22;3.60;;;1.17;;
68484;SDS011;55472;50.060;21.960;2024-03-25T09:52:48;4.78;;;2.40;;
68484;SDS011;55472;50.060;21.960;2024-03-25T09:55:15;3.73;;;1.10;;
68484;SDS011;55472;50.060;21.960;2024-03-25T09:57:43;2.72;;;0.82;;
68484;SDS011;55472;50.060;21.960;2024-03-25T10:00:10;3.13;;;0.80;;
68484;SDS011;55472;50.060;21.960;2024-03-25T10:02:38;2.83;;;0.80;;
68484;SDS011;55472;50.060;21.960;2024-03-25T10:05:05;4.40;;;1.80;;
68484;SDS011;55472;50.060;21.960;2024-03-25T10:07:33;5.35;;;2.25;;
68484;SDS011;55472;50.060;21.960;2024-03-25T10:10:03;3.55;;;1.05;;
68484;SDS011;55472;50.060;21.960;2024-03-25T10:12:30;3.33;;;0.93;;
68484;SDS011;55472;50.060;21.960;2024-03-25T10:14:57;2.90;;;0.97;;
68484;SDS011;55472;50.060;21.960;2024-03-25T10:17:24;2.47;;;0.73;;
68484;SDS011;55472;50.060;21.960;2024-03-25T10:19:50;2.55;;;0.90;;
68484;SDS011;55472;50.060;21.960;2024-03-25T10:22:19;2.60;;;0.80;;
68484;SDS011;55472;50.060;21.960;2024-03-25T10:24:45;4.93;;;1.38;;
68484;SDS011;55472;50.060;21.960;2024-03-25T10:27:21;4.30;;;1.20;;
68484;SDS011;55472;50.060;21.960;2024-03-25T10:29:52;3.95;;;1.60;;
68484;SDS011;55472;50.060;21.960;2024-03-25T10:32:22;3.85;;;1.10;;
68484;SDS011;55472;50.060;21.960;2024-03-25T10:34:54;5.63;;;1.40;;
68484;SDS011;55472;50.060;21.960;2024-03-25T10:37:20;5.35;;;1.50;;
68484;SDS011;55472;50.060;21.960;2024-03-25T10:39:50;5.10;;;1.25;;
68484;SDS011;55472;50.060;21.960;2024-03-25T10:42:20;4.00;;;1.20;;
68484;SDS011;55472;50.060;21.960;2024-03-25T10:44:48;4.15;;;1.25;;
68484;SDS011;55472;50.060;21.960;2024-03-25T10:47:21;5.68;;;2.13;;
68484;SDS011;55472;50.060;21.960;2024-03-25T10:49:56;5.85;;;2.03;;
68484;SDS011;55472;50.060;21.960;2024-03-25T10:52:24;4.65;;;1.38;;
68484;SDS011;55472;50.060;21.960;2024-03-25T10:54:52;3.37;;;1.27;;
68484;SDS011;55472;50.060;21.960;2024-03-25T10:57:20;5.10;;;1.42;;
68484;SDS011;55472;50.060;21.960;2024-03-25T10:59:47;5.22;;;1.52;;
68484;SDS011;55472;50.060;21.960;2024-03-25T11:02:14;4.70;;;1.55;;
68484;SDS011;55472;50.060;21.960;2024-03-25T11:04:43;4.20;;;1.42;;
68484;SDS011;55472;50.060;21.960;2024-03-25T11:07:10;6.47;;;1.97;;
68484;SDS011;55472;50.060;21.960;2024-03-25T11:09:39;5.57;;;2.08;;
68484;SDS011;55472;50.060;21.960;2024-03-25T11:12:06;7.10;;;2.20;;
68484;SDS011;55472;50.060;21.960;2024-03-25T11:14:35;12.85;;;4.93;;
68484;SDS011;55472;50.060;21.960;2024-03-25T11:17:02;5.38;;;2.00;;
68484;SDS011;55472;50.060;21.960;2024-03-25T11:19:29;5.27;;;1.60;;
68484;SDS011;55472;50.060;21.960;2024-03-25T11:22:08;5.35;;;1.40;;
68484;SDS011;55472;50.060;21.960;2024-03-25T11:24:36;4.28;;;1.50;;
68484;SDS011;55472;50.060;21.960;2024-03-25T11:27:06;4.15;;;1.13;;
68484;SDS011;55472;50.060;21.960;2024-03-25T11:29:36;4.20;;;1.48;;
68484;SDS011;55472;50.060;21.960;2024-03-25T11:32:03;4.43;;;1.40;;
68484;SDS011;55472;50.060;21.960;2024-03-25T11:34:31;3.08;;;1.05;;
68484;SDS011;55472;50.060;21.960;2024-03-25T11:36:57;4.40;;;1.25;;
68484;SDS011;55472;50.060;21.960;2024-03-25T11:39:24;3.13;;;1.10;;
68484;SDS011;55472;50.060;21.960;2024-03-25T11:41:54;3.40;;;0.82;;
68484;SDS011;55472;50.060;21.960;2024-03-25T11:44:20;5.17;;;0.80;;
68484;SDS011;55472;50.060;21.960;2024-03-25T11:46:51;3.65;;;1.00;;
68484;SDS011;55472;50.060;21.960;2024-03-25T11:49:20;6.15;;;1.25;;
68484;SDS011;55472;50.060;21.960;2024-03-25T11:51:46;3.65;;;1.17;;
68484;SDS011;55472;50.060;21.960;2024-03-25T11:54:13;2.65;;;0.90;;
68484;SDS011;55472;50.060;21.960;2024-03-25T11:56:40;2.23;;;0.70;;
68484;SDS011;55472;50.060;21.960;2024-03-25T11:59:08;3.10;;;1.05;;
68484;SDS011;55472;50.060;21.960;2024-03-25T12:01:36;2.63;;;0.88;;
68484;SDS011;55472;50.060;21.960;2024-03-25T12:04:17;2.83;;;0.70;;
68484;SDS011;55472;50.060;21.960;2024-03-25T12:06:44;3.80;;;0.80;;
68484;SDS011;55472;50.060;21.960;2024-03-25T12:09:11;3.30;;;1.00;;
68484;SDS011;55472;50.060;21.960;2024-03-25T12:11:55;2.70;;;0.80;;
68484;SDS011;55472;50.060;21.960;2024-03-25T12:14:23;3.60;;;0.80;;
68484;SDS011;55472;50.060;21.960;2024-03-25T12:16:53;2.88;;;0.88;;
68484;SDS011;55472;50.060;21.960;2024-03-25T12:19:20;3.72;;;1.08;;
68484;SDS011;55472;50.060;21.960;2024-03-25T12:21:46;2.45;;;0.52;;
68484;SDS011;55472;50.060;21.960;2024-03-25T12:24:14;2.30;;;0.80;;
68484;SDS011;55472;50.060;21.960;2024-03-25T12:26:41;6.77;;;3.00;;
68484;SDS011;55472;50.060;21.960;2024-03-25T12:29:08;2.92;;;0.90;;
68484;SDS011;55472;50.060;21.960;2024-03-25T12:31:34;2.50;;;0.60;;
68484;SDS011;55472;50.060;21.960;2024-03-25T12:34:00;2.45;;;0.80;;
68484;SDS011;55472;50.060;21.960;2024-03-25T12:36:26;2.47;;;0.85;;
68484;SDS011;55472;50.060;21.960;2024-03-25T12:38:55;2.90;;;0.90;;
68484;SDS011;55472;50.060;21.960;2024-03-25T12:41:22;3.25;;;1.05;;
68484;SDS011;55472;50.060;21.960;2024-03-25T12:43:50;3.20;;;1.00;;
68484;SDS011;55472;50.060;21.960;2024-03-25T12:46:16;2.75;;;0.80;;
68484;SDS011;55472;50.060;21.960;2024-03-25T12:48:43;2.42;;;0.60;;
68484;SDS011;55472;50.060;21.960;2024-03-25T12:51:13;1.80;;;0.50;;
68484;SDS011;55472;50.060;21.960;2024-03-25T12:53:41;2.40;;;0.60;;
68484;SDS011;55472;50.060;21.960;2024-03-25T12:56:07;3.05;;;1.00;;
68484;SDS011;55472;50.060;21.960;2024-03-25T12:58:34;2.67;;;0.80;;
68484;SDS011;55472;50.060;21.960;2024-03-25T13:01:00;5.15;;;1.20;;
68484;SDS011;55472;50.060;21.960;2024-03-25T13:03:26;2.63;;;0.85;;
68484;SDS011;55472;50.060;21.960;2024-03-25T13:05:52;2.53;;;0.60;;
68484;SDS011;55472;50.060;21.960;2024-03-25T13:08:19;2.42;;;0.73;;
68484;SDS011;55472;50.060;21.960;2024-03-25T13:10:46;2.65;;;1.00;;
68484;SDS011;55472;50.060;21.960;2024-03-25T13:13:13;2.47;;;0.65;;
68484;SDS011;55472;50.060;21.960;2024-03-25T13:15:39;3.35;;;0.80;;
68484;SDS011;55472;50.060;21.960;2024-03-25T13:18:05;4.03;;;0.70;;
68484;SDS011;55472;50.060;21.960;2024-03-25T13:20:31;1.75;;;0.50;;
68484;SDS011;55472;50.060;21.960;2024-03-25T13:22:58;3.03;;;0.82;;
68484;SDS011;55472;50.060;21.960;2024-03-25T13:25:25;3.65;;;0.82;;
68484;SDS011;55472;50.060;21.960;2024-03-25T13:27:55;5.30;;;1.40;;
68484;SDS011;55472;50.060;21.960;2024-03-25T13:30:21;1.90;;;0.57;;
68484;SDS011;55472;50.060;21.960;2024-03-25T13:32:50;2.33;;;0.57;;
68484;SDS011;55472;50.060;21.960;2024-03-25T13:35:16;3.70;;;0.70;;
68484;SDS011;55472;50.060;21.960;2024-03-25T13:37:43;1.95;;;0.60;;
68484;SDS011;55472;50.060;21.960;2024-03-25T13:40:09;3.53;;;1.00;;
68484;SDS011;55472;50.060;21.960;2024-03-25T13:42:37;15.67;;;5.20;;
68484;SDS011;55472;50.060;21.960;2024-03-25T13:45:04;4.63;;;1.05;;
68484;SDS011;55472;50.060;21.960;2024-03-25T13:47:30;20.73;;;5.70;;
68484;SDS011;55472;50.060;21.960;2024-03-25T13:50:00;6.88;;;1.73;;
68484;SDS011;55472;50.060;21.960;2024-03-25T13:52:29;9.25;;;2.85;;
68484;SDS011;55472;50.060;21.960;2024-03-25T13:54:56;2.93;;;0.70;;
68484;SDS011;55472;50.060;21.960;2024-03-25T13:57:22;3.80;;;1.20;;
68484;SDS011;55472;50.060;21.960;2024-03-25T13:59:49;11.80;;;3.95;;
68484;SDS011;55472;50.060;21.960;2024-03-25T14:02:16;3.58;;;0.93;;
68484;SDS011;55472;50.060;21.960;2024-03-25T14:04:42;7.83;;;1.47;;
68484;SDS011;55472;50.060;21.960;2024-03-25T14:07:09;9.75;;;3.45;;
68484;SDS011;55472;50.060;21.960;2024-03-25T14:09:35;4.15;;;1.13;;
68484;SDS011;55472;50.060;21.960;2024-03-25T14:12:01;5.03;;;1.52;;
68484;SDS011;55472;50.060;21.960;2024-03-25T14:14:29;3.03;;;1.00;;
68484;SDS011;55472;50.060;21.960;2024-03-25T14:16:55;4.67;;;1.37;;
68484;SDS011;55472;50.060;21.960;2024-03-25T14:19:21;2.72;;;0.70;;
68484;SDS011;55472;50.060;21.960;2024-03-25T14:21:48;3.42;;;0.95;;
68484;SDS011;55472;50.060;21.960;2024-03-25T14:24:15;4.63;;;1.20;;
68484;SDS011;55472;50.060;21.960;2024-03-25T14:26:42;4.35;;;1.65;;
68484;SDS011;55472;50.060;21.960;2024-03-25T14:29:08;4.90;;;1.23;;
68484;SDS011;55472;50.060;21.960;2024-03-25T14:31:34;4.45;;;1.17;;